A- A+ FrançaisEnglishEspañol中国

Services sur Internet Soldes sur Internet Des idées de cadeaux Météo Météo aéro

La météo à : Autours de vous Beziers-Vias Tarbes-Lourdes-PyrénéesCaen-CarpiquetAurillac

La météo aéronautique pour les pilotes, la préparation du vol avec les METAR (METeorological Aerodrome Report, message d'observation des conditions météorologiques pour l'aviation) et Les TAF (Terminal Aerodrome Forecast : message de prévision à court terme des conditions météorologiques pour l'aviation). Et les autres ressources comme les VAC (Visual Approch Chart) et les NOTAM (Notice To Airman) pour préprer les vols.

Aéroport Vagar (Iles Féroé) / OACI EKVG/ IATA FAE

L'altitude de l'aéroport Vagar est de 85 m = 279 ft. Il est situé à proximité de Vagar (Iles Féroé). La météo générale à 5 jours est disponible pour Streymoyar Sýsla situé à 16.4 km.

METAR de l'aéroport Vagar - EKVG

EKVG 041720Z AUTO 25018G36KT 200V300 9999 FEW016/// BKN026/// BKN140/// 05/M00 Q0986

Décodage du METAR de l'aéroport Vagar (FO)

METAR émis par EKVG le mercredi 4 décembre 2019 à 17:20 heure TU. C'est un METAR généré automatiquement. Attention ce METAR est obsolète car il a été émis il y a 22 heure et 17 minutes.

La visibilité est de supérieure à 10 km = supérieure à 6.2 sm.

La température est de 5°C = 41 °F et le point rosée est de 0°C = 32 °F . Ce qui correspond à 70% d'humidité relative.

Le QNH est de 986 hPa = 29.12 inHg

Vent de 18 kt = 33 km/h avec des rafales à 36 kt = 67 km/h, orienté à 250°.

Nuages : Quelques nuages à 1600 ft = 490 mètres. Couverture nuageuse fragmentée à 2600 ft = 790 mètres. Couverture nuageuse fragmentée à 14000 ft = 4270 mètres.

TAF de l'aéroport Vagar - EKVG

EKVG 061404Z 0615/0621 31008KT 9999 BKN020 TEMPO 0615/0621 3000 -SHRASN BKN012 SCT020TCU

EKVG 061404Z 0615/0621 31008KT 9999 couverture nuageuse fragmentée à 020 temporairement 0615/0621 3000 faible SHRASN couverture nuageuse fragmentée à 012 nuages épars à 020TCU

Aéroport à proximité de Vagar

Météo générale à 5 jours à Streymoyar Sýsla (16.4 km)Aéroport Scatsta (368 km)Aéroport Westray (383 km)Aéroport Papa Westray (384 km)Aéroport Lerwick (385 km)Aéroport Whalsay (388 km)Aéroport North Ronaldsay (399 km)

Vue aérienne de l'aéroport Vagar

NOTAM de l'aéroport Vagar

Les NOTAM sont fournis sans aucune garantie de leur actualité. Le pilote est le seul responsable de la vérification de sa validité avant de l'utiliser opérationnellement pour préparer un vol ou l'utiliser lors de sa navigation.

Pas de NOTAM

Sources des données